sensor_id;sensor_type;location;lat;lon;timestamp;temperature;humidity
57058;DHT22;55017;52.848;6.748;2023-11-21T00:00:16;8.10;99.90
57058;DHT22;55017;52.848;6.748;2023-11-21T00:02:44;8.10;99.90
57058;DHT22;55017;52.848;6.748;2023-11-21T00:05:12;8.10;99.90
57058;DHT22;55017;52.848;6.748;2023-11-21T00:07:39;8.10;99.90
57058;DHT22;55017;52.848;6.748;2023-11-21T00:10:05;8.00;99.90
57058;DHT22;55017;52.848;6.748;2023-11-21T00:12:32;8.10;99.90
57058;DHT22;55017;52.848;6.748;2023-11-21T00:14:58;8.10;99.90
57058;DHT22;55017;52.848;6.748;2023-11-21T00:17:24;8.00;99.90
57058;DHT22;55017;52.848;6.748;2023-11-21T00:19:50;8.10;99.90
57058;DHT22;55017;52.848;6.748;2023-11-21T00:22:18;8.10;99.90
57058;DHT22;55017;52.848;6.748;2023-11-21T00:24:43;8.00;99.90
57058;DHT22;55017;52.848;6.748;2023-11-21T00:27:09;8.10;99.90
57058;DHT22;55017;52.848;6.748;2023-11-21T00:29:35;8.20;99.90
57058;DHT22;55017;52.848;6.748;2023-11-21T00:32:01;8.10;99.90
57058;DHT22;55017;52.848;6.748;2023-11-21T00:34:27;8.20;99.90
57058;DHT22;55017;52.848;6.748;2023-11-21T00:36:53;8.10;99.90
57058;DHT22;55017;52.848;6.748;2023-11-21T00:39:18;8.20;99.90
57058;DHT22;55017;52.848;6.748;2023-11-21T00:41:44;8.20;99.90
57058;DHT22;55017;52.848;6.748;2023-11-21T00:44:10;8.30;99.90
57058;DHT22;55017;52.848;6.748;2023-11-21T00:46:36;8.30;99.90
57058;DHT22;55017;52.848;6.748;2023-11-21T00:49:02;8.40;99.90
57058;DHT22;55017;52.848;6.748;2023-11-21T00:51:30;8.40;99.90
57058;DHT22;55017;52.848;6.748;2023-11-21T00:53:55;8.50;99.90
57058;DHT22;55017;52.848;6.748;2023-11-21T00:56:21;8.40;99.90
57058;DHT22;55017;52.848;6.748;2023-11-21T00:58:47;8.60;99.90
57058;DHT22;55017;52.848;6.748;2023-11-21T01:01:15;8.40;99.90
57058;DHT22;55017;52.848;6.748;2023-11-21T01:03:41;8.40;99.90
57058;DHT22;55017;52.848;6.748;2023-11-21T01:06:07;8.50;99.90
57058;DHT22;55017;52.848;6.748;2023-11-21T01:08:34;8.40;99.90
57058;DHT22;55017;52.848;6.748;2023-11-21T01:11:00;8.40;99.90
57058;DHT22;55017;52.848;6.748;2023-11-21T01:13:25;8.40;99.90
57058;DHT22;55017;52.848;6.748;2023-11-21T01:15:55;8.50;99.90
57058;DHT22;55017;52.848;6.748;2023-11-21T01:18:21;8.40;99.90
57058;DHT22;55017;52.848;6.748;2023-11-21T01:20:47;8.50;99.90
57058;DHT22;55017;52.848;6.748;2023-11-21T01:23:13;8.40;99.90
57058;DHT22;55017;52.848;6.748;2023-11-21T01:25:39;8.50;99.90
57058;DHT22;55017;52.848;6.748;2023-11-21T01:28:04;8.50;99.90
57058;DHT22;55017;52.848;6.748;2023-11-21T01:30:30;8.40;99.90
57058;DHT22;55017;52.848;6.748;2023-11-21T01:32:58;8.60;99.90
57058;DHT22;55017;52.848;6.748;2023-11-21T01:35:23;8.40;99.90
57058;DHT22;55017;52.848;6.748;2023-11-21T01:37:49;8.50;99.90
57058;DHT22;55017;52.848;6.748;2023-11-21T01:40:15;8.50;99.90
57058;DHT22;55017;52.848;6.748;2023-11-21T01:42:41;8.50;99.90
57058;DHT22;55017;52.848;6.748;2023-11-21T01:45:09;8.60;99.90
57058;DHT22;55017;52.848;6.748;2023-11-21T01:47:35;8.60;99.90
57058;DHT22;55017;52.848;6.748;2023-11-21T01:50:02;8.50;99.90
57058;DHT22;55017;52.848;6.748;2023-11-21T01:52:30;8.50;99.90
57058;DHT22;55017;52.848;6.748;2023-11-21T01:54:57;8.50;99.90
57058;DHT22;55017;52.848;6.748;2023-11-21T01:57:23;8.50;99.90
57058;DHT22;55017;52.848;6.748;2023-11-21T01:59:48;8.50;99.90
57058;DHT22;55017;52.848;6.748;2023-11-21T02:02:15;8.50;99.90
57058;DHT22;55017;52.848;6.748;2023-11-21T02:04:41;8.60;99.90
57058;DHT22;55017;52.848;6.748;2023-11-21T02:07:06;8.40;99.90
57058;DHT22;55017;52.848;6.748;2023-11-21T02:09:32;8.40;99.90
57058;DHT22;55017;52.848;6.748;2023-11-21T02:12:04;8.50;99.90
57058;DHT22;55017;52.848;6.748;2023-11-21T02:14:30;8.40;99.90
57058;DHT22;55017;52.848;6.748;2023-11-21T02:16:57;8.50;99.90
57058;DHT22;55017;52.848;6.748;2023-11-21T02:19:23;8.60;99.90
57058;DHT22;55017;52.848;6.748;2023-11-21T02:21:52;8.70;99.90
57058;DHT22;55017;52.848;6.748;2023-11-21T02:24:22;8.60;99.90
57058;DHT22;55017;52.848;6.748;2023-11-21T02:26:48;8.60;99.90
57058;DHT22;55017;52.848;6.748;2023-11-21T02:29:17;8.60;99.90
57058;DHT22;55017;52.848;6.748;2023-11-21T02:31:44;8.60;99.90
57058;DHT22;55017;52.848;6.748;2023-11-21T02:34:17;8.50;99.90
57058;DHT22;55017;52.848;6.748;2023-11-21T02:36:46;8.60;99.90
57058;DHT22;55017;52.848;6.748;2023-11-21T02:39:15;8.60;99.90
57058;DHT22;55017;52.848;6.748;2023-11-21T02:41:40;8.50;99.90
57058;DHT22;55017;52.848;6.748;2023-11-21T02:44:06;8.50;99.90
57058;DHT22;55017;52.848;6.748;2023-11-21T02:46:36;8.50;99.90
57058;DHT22;55017;52.848;6.748;2023-11-21T02:49:06;8.40;99.90
57058;DHT22;55017;52.848;6.748;2023-11-21T02:51:32;8.50;99.90
57058;DHT22;55017;52.848;6.748;2023-11-21T02:53:58;8.60;99.90
57058;DHT22;55017;52.848;6.748;2023-11-21T02:56:27;8.50;99.90
57058;DHT22;55017;52.848;6.748;2023-11-21T02:58:55;8.60;99.90
57058;DHT22;55017;52.848;6.748;2023-11-21T03:01:21;8.50;99.90
57058;DHT22;55017;52.848;6.748;2023-11-21T03:03:46;8.60;99.90
57058;DHT22;55017;52.848;6.748;2023-11-21T03:06:13;8.50;99.90
57058;DHT22;55017;52.848;6.748;2023-11-21T03:08:38;8.50;99.90
57058;DHT22;55017;52.848;6.748;2023-11-21T03:11:04;8.50;99.90
57058;DHT22;55017;52.848;6.748;2023-11-21T03:13:29;8.60;99.90
57058;DHT22;55017;52.848;6.748;2023-11-21T03:15:55;8.60;99.90
57058;DHT22;55017;52.848;6.748;2023-11-21T03:18:21;8.50;99.90
57058;DHT22;55017;52.848;6.748;2023-11-21T03:20:51;8.60;99.90
57058;DHT22;55017;52.848;6.748;2023-11-21T03:23:17;8.50;99.90
57058;DHT22;55017;52.848;6.748;2023-11-21T03:25:43;8.60;99.90
57058;DHT22;55017;52.848;6.748;2023-11-21T03:28:09;8.60;99.90
57058;DHT22;55017;52.848;6.748;2023-11-21T03:30:34;8.70;99.90
57058;DHT22;55017;52.848;6.748;2023-11-21T03:33:00;8.70;99.90
57058;DHT22;55017;52.848;6.748;2023-11-21T03:35:25;8.70;99.90
57058;DHT22;55017;52.848;6.748;2023-11-21T03:37:51;8.70;99.90
57058;DHT22;55017;52.848;6.748;2023-11-21T03:40:17;8.60;99.90
57058;DHT22;55017;52.848;6.748;2023-11-21T03:42:43;8.60;99.90
57058;DHT22;55017;52.848;6.748;2023-11-21T03:45:08;8.60;99.90
57058;DHT22;55017;52.848;6.748;2023-11-21T03:47:34;8.60;99.90
57058;DHT22;55017;52.848;6.748;2023-11-21T03:50:00;8.70;99.90
57058;DHT22;55017;52.848;6.748;2023-11-21T03:52:26;8.70;99.90
57058;DHT22;55017;52.848;6.748;2023-11-21T03:54:52;8.80;99.90
57058;DHT22;55017;52.848;6.748;2023-11-21T03:57:18;8.70;99.90
57058;DHT22;55017;52.848;6.748;2023-11-21T03:59:43;8.70;99.90
57058;DHT22;55017;52.848;6.748;2023-11-21T04:02:09;8.80;99.90
57058;DHT22;55017;52.848;6.748;2023-11-21T04:04:35;8.70;99.90
57058;DHT22;55017;52.848;6.748;2023-11-21T04:07:01;8.70;99.90
57058;DHT22;55017;52.848;6.748;2023-11-21T04:09:27;8.70;99.90
57058;DHT22;55017;52.848;6.748;2023-11-21T04:11:53;8.80;99.90
57058;DHT22;55017;52.848;6.748;2023-11-21T04:14:19;8.80;99.90
57058;DHT22;55017;52.848;6.748;2023-11-21T04:16:45;8.70;99.90
57058;DHT22;55017;52.848;6.748;2023-11-21T04:19:11;8.80;99.90
57058;DHT22;55017;52.848;6.748;2023-11-21T04:21:37;8.70;99.90
57058;DHT22;55017;52.848;6.748;2023-11-21T04:24:03;8.90;99.90
57058;DHT22;55017;52.848;6.748;2023-11-21T04:26:28;8.80;99.90
57058;DHT22;55017;52.848;6.748;2023-11-21T04:28:54;8.70;99.90
57058;DHT22;55017;52.848;6.748;2023-11-21T04:31:19;8.80;99.90
57058;DHT22;55017;52.848;6.748;2023-11-21T04:33:45;8.80;99.90
57058;DHT22;55017;52.848;6.748;2023-11-21T04:36:10;8.70;99.90
57058;DHT22;55017;52.848;6.748;2023-11-21T04:38:36;8.80;99.90
57058;DHT22;55017;52.848;6.748;2023-11-21T04:41:02;8.70;99.90
57058;DHT22;55017;52.848;6.748;2023-11-21T04:43:27;8.70;99.90
57058;DHT22;55017;52.848;6.748;2023-11-21T04:45:54;8.80;99.90
57058;DHT22;55017;52.848;6.748;2023-11-21T04:48:20;8.80;99.90
57058;DHT22;55017;52.848;6.748;2023-11-21T04:50:45;8.70;99.90
57058;DHT22;55017;52.848;6.748;2023-11-21T04:53:11;8.80;99.90
57058;DHT22;55017;52.848;6.748;2023-11-21T04:55:43;8.70;99.90
57058;DHT22;55017;52.848;6.748;2023-11-21T04:58:09;8.60;99.90
57058;DHT22;55017;52.848;6.748;2023-11-21T05:00:35;8.60;99.90
57058;DHT22;55017;52.848;6.748;2023-11-21T05:03:02;8.70;99.90
57058;DHT22;55017;52.848;6.748;2023-11-21T05:05:28;8.60;99.90
57058;DHT22;55017;52.848;6.748;2023-11-21T05:07:55;8.60;99.90
57058;DHT22;55017;52.848;6.748;2023-11-21T05:10:20;8.70;99.90
57058;DHT22;55017;52.848;6.748;2023-11-21T05:12:47;8.80;99.90
57058;DHT22;55017;52.848;6.748;2023-11-21T05:15:16;8.70;99.90
57058;DHT22;55017;52.848;6.748;2023-11-21T05:17:43;8.60;99.90
57058;DHT22;55017;52.848;6.748;2023-11-21T05:20:13;8.60;99.90
57058;DHT22;55017;52.848;6.748;2023-11-21T05:22:43;8.70;99.90
57058;DHT22;55017;52.848;6.748;2023-11-21T05:25:09;8.70;99.90
57058;DHT22;55017;52.848;6.748;2023-11-21T05:27:35;8.70;99.90
57058;DHT22;55017;52.848;6.748;2023-11-21T05:30:03;8.70;99.90
57058;DHT22;55017;52.848;6.748;2023-11-21T05:32:31;8.60;99.90
57058;DHT22;55017;52.848;6.748;2023-11-21T05:34:56;8.70;99.90
57058;DHT22;55017;52.848;6.748;2023-11-21T05:37:22;8.70;99.90
57058;DHT22;55017;52.848;6.748;2023-11-21T05:39:49;8.70;99.90
57058;DHT22;55017;52.848;6.748;2023-11-21T05:42:14;8.90;99.90
57058;DHT22;55017;52.848;6.748;2023-11-21T05:44:42;8.70;99.90
57058;DHT22;55017;52.848;6.748;2023-11-21T05:47:11;8.70;99.90
57058;DHT22;55017;52.848;6.748;2023-11-21T05:49:39;8.80;99.90
57058;DHT22;55017;52.848;6.748;2023-11-21T05:52:04;8.70;99.90
57058;DHT22;55017;52.848;6.748;2023-11-21T05:54:31;8.70;99.90
57058;DHT22;55017;52.848;6.748;2023-11-21T05:56:56;8.80;99.90
57058;DHT22;55017;52.848;6.748;2023-11-21T05:59:22;8.70;99.90
57058;DHT22;55017;52.848;6.748;2023-11-21T06:01:47;8.90;99.90
57058;DHT22;55017;52.848;6.748;2023-11-21T06:04:13;8.80;99.90
57058;DHT22;55017;52.848;6.748;2023-11-21T06:06:39;8.80;99.90
57058;DHT22;55017;52.848;6.748;2023-11-21T06:09:05;8.90;99.90
57058;DHT22;55017;52.848;6.748;2023-11-21T06:11:33;8.90;99.90
57058;DHT22;55017;52.848;6.748;2023-11-21T06:13:59;8.70;99.90
57058;DHT22;55017;52.848;6.748;2023-11-21T06:16:25;8.80;99.90
57058;DHT22;55017;52.848;6.748;2023-11-21T06:18:51;8.80;99.90
57058;DHT22;55017;52.848;6.748;2023-11-21T06:21:16;8.80;99.90
57058;DHT22;55017;52.848;6.748;2023-11-21T06:23:43;8.80;99.90
57058;DHT22;55017;52.848;6.748;2023-11-21T06:26:09;8.90;99.90
57058;DHT22;55017;52.848;6.748;2023-11-21T06:28:35;8.90;99.90
57058;DHT22;55017;52.848;6.748;2023-11-21T06:31:01;8.90;99.90
57058;DHT22;55017;52.848;6.748;2023-11-21T06:33:31;8.80;99.90
57058;DHT22;55017;52.848;6.748;2023-11-21T06:35:57;8.90;99.90
57058;DHT22;55017;52.848;6.748;2023-11-21T06:38:22;8.90;99.90
57058;DHT22;55017;52.848;6.748;2023-11-21T06:40:48;8.90;99.90
57058;DHT22;55017;52.848;6.748;2023-11-21T06:43:13;8.90;99.90
57058;DHT22;55017;52.848;6.748;2023-11-21T06:45:40;8.80;99.90
57058;DHT22;55017;52.848;6.748;2023-11-21T06:48:05;8.90;99.90
57058;DHT22;55017;52.848;6.748;2023-11-21T06:50:31;9.00;99.90
57058;DHT22;55017;52.848;6.748;2023-11-21T06:52:56;9.00;99.90
57058;DHT22;55017;52.848;6.748;2023-11-21T06:55:22;9.00;99.90
57058;DHT22;55017;52.848;6.748;2023-11-21T06:57:47;9.00;99.90
57058;DHT22;55017;52.848;6.748;2023-11-21T07:00:15;9.00;99.90
57058;DHT22;55017;52.848;6.748;2023-11-21T07:02:43;9.10;99.90
57058;DHT22;55017;52.848;6.748;2023-11-21T07:05:09;9.10;99.90
57058;DHT22;55017;52.848;6.748;2023-11-21T07:07:35;9.00;99.90
57058;DHT22;55017;52.848;6.748;2023-11-21T07:10:02;9.10;99.90
57058;DHT22;55017;52.848;6.748;2023-11-21T07:12:31;9.00;99.90
57058;DHT22;55017;52.848;6.748;2023-11-21T07:14:58;9.10;99.90
57058;DHT22;55017;52.848;6.748;2023-11-21T07:17:23;9.00;99.90
57058;DHT22;55017;52.848;6.748;2023-11-21T07:19:49;9.00;99.90
57058;DHT22;55017;52.848;6.748;2023-11-21T07:22:15;9.00;99.90
57058;DHT22;55017;52.848;6.748;2023-11-21T07:24:48;9.00;99.90
57058;DHT22;55017;52.848;6.748;2023-11-21T07:27:15;9.00;99.90
57058;DHT22;55017;52.848;6.748;2023-11-21T07:29:40;9.10;99.90
57058;DHT22;55017;52.848;6.748;2023-11-21T07:32:06;9.00;99.90
57058;DHT22;55017;52.848;6.748;2023-11-21T07:34:34;9.00;99.90
57058;DHT22;55017;52.848;6.748;2023-11-21T07:37:00;9.00;99.90
57058;DHT22;55017;52.848;6.748;2023-11-21T07:39:26;9.10;99.90
57058;DHT22;55017;52.848;6.748;2023-11-21T07:41:51;9.00;99.90
57058;DHT22;55017;52.848;6.748;2023-11-21T07:44:17;9.00;99.90
57058;DHT22;55017;52.848;6.748;2023-11-21T07:46:43;8.90;99.90
57058;DHT22;55017;52.848;6.748;2023-11-21T07:49:09;9.10;99.90
57058;DHT22;55017;52.848;6.748;2023-11-21T07:51:35;9.20;99.90
57058;DHT22;55017;52.848;6.748;2023-11-21T07:54:00;9.20;99.90
57058;DHT22;55017;52.848;6.748;2023-11-21T07:56:26;9.10;99.90
57058;DHT22;55017;52.848;6.748;2023-11-21T07:58:52;9.20;99.90
57058;DHT22;55017;52.848;6.748;2023-11-21T08:01:18;9.20;99.90
57058;DHT22;55017;52.848;6.748;2023-11-21T08:03:43;9.10;99.90
57058;DHT22;55017;52.848;6.748;2023-11-21T08:06:09;9.30;99.90
57058;DHT22;55017;52.848;6.748;2023-11-21T08:08:35;9.20;99.90
57058;DHT22;55017;52.848;6.748;2023-11-21T08:11:01;9.40;99.90
57058;DHT22;55017;52.848;6.748;2023-11-21T08:13:28;9.30;99.90
57058;DHT22;55017;52.848;6.748;2023-11-21T08:15:56;9.20;99.90
57058;DHT22;55017;52.848;6.748;2023-11-21T08:18:23;9.30;99.90
57058;DHT22;55017;52.848;6.748;2023-11-21T08:20:49;9.30;99.90
57058;DHT22;55017;52.848;6.748;2023-11-21T08:23:15;9.40;99.90
57058;DHT22;55017;52.848;6.748;2023-11-21T08:25:44;9.30;99.90
57058;DHT22;55017;52.848;6.748;2023-11-21T08:28:10;9.40;99.90
57058;DHT22;55017;52.848;6.748;2023-11-21T08:30:36;9.40;99.90
57058;DHT22;55017;52.848;6.748;2023-11-21T08:33:02;9.40;99.90
57058;DHT22;55017;52.848;6.748;2023-11-21T08:35:29;9.40;99.90
57058;DHT22;55017;52.848;6.748;2023-11-21T08:37:55;9.30;99.90
57058;DHT22;55017;52.848;6.748;2023-11-21T08:40:21;9.30;99.90
57058;DHT22;55017;52.848;6.748;2023-11-21T08:42:47;9.30;99.90
57058;DHT22;55017;52.848;6.748;2023-11-21T08:45:14;9.40;99.90
57058;DHT22;55017;52.848;6.748;2023-11-21T08:47:40;9.30;99.90
57058;DHT22;55017;52.848;6.748;2023-11-21T08:50:06;9.20;99.90
57058;DHT22;55017;52.848;6.748;2023-11-21T08:52:34;9.20;99.90
57058;DHT22;55017;52.848;6.748;2023-11-21T08:54:59;9.20;99.90
57058;DHT22;55017;52.848;6.748;2023-11-21T08:57:28;9.20;99.90
57058;DHT22;55017;52.848;6.748;2023-11-21T08:59:53;9.20;99.90
57058;DHT22;55017;52.848;6.748;2023-11-21T09:02:26;9.20;99.90
57058;DHT22;55017;52.848;6.748;2023-11-21T09:04:52;9.10;99.90
57058;DHT22;55017;52.848;6.748;2023-11-21T09:07:19;9.10;99.90
57058;DHT22;55017;52.848;6.748;2023-11-21T09:09:46;9.10;99.90
57058;DHT22;55017;52.848;6.748;2023-11-21T09:12:12;9.10;99.90
57058;DHT22;55017;52.848;6.748;2023-11-21T09:14:38;9.00;99.90
57058;DHT22;55017;52.848;6.748;2023-11-21T09:17:05;9.00;99.90
57058;DHT22;55017;52.848;6.748;2023-11-21T09:19:39;8.80;99.90
57058;DHT22;55017;52.848;6.748;2023-11-21T09:22:05;9.00;99.90
57058;DHT22;55017;52.848;6.748;2023-11-21T09:24:31;9.10;99.90
57058;DHT22;55017;52.848;6.748;2023-11-21T09:26:57;8.90;99.90
57058;DHT22;55017;52.848;6.748;2023-11-21T09:29:23;8.90;99.90
57058;DHT22;55017;52.848;6.748;2023-11-21T09:31:49;8.90;99.90
57058;DHT22;55017;52.848;6.748;2023-11-21T09:34:16;8.90;99.90
57058;DHT22;55017;52.848;6.748;2023-11-21T09:36:45;8.90;99.90
57058;DHT22;55017;52.848;6.748;2023-11-21T09:39:11;8.90;99.90
57058;DHT22;55017;52.848;6.748;2023-11-21T09:41:50;9.10;99.90
57058;DHT22;55017;52.848;6.748;2023-11-21T09:44:25;8.90;99.90
57058;DHT22;55017;52.848;6.748;2023-11-21T09:46:54;8.80;99.90
57058;DHT22;55017;52.848;6.748;2023-11-21T09:49:23;9.00;99.90
57058;DHT22;55017;52.848;6.748;2023-11-21T09:51:55;8.80;99.90
57058;DHT22;55017;52.848;6.748;2023-11-21T09:54:21;8.90;99.90
57058;DHT22;55017;52.848;6.748;2023-11-21T09:56:47;9.00;99.90
57058;DHT22;55017;52.848;6.748;2023-11-21T09:59:15;8.90;99.90
57058;DHT22;55017;52.848;6.748;2023-11-21T10:01:42;9.00;99.90
57058;DHT22;55017;52.848;6.748;2023-11-21T10:04:08;8.90;99.90
57058;DHT22;55017;52.848;6.748;2023-11-21T10:06:41;9.00;99.90
57058;DHT22;55017;52.848;6.748;2023-11-21T10:09:12;8.80;99.90
57058;DHT22;55017;52.848;6.748;2023-11-21T10:11:42;8.80;99.90
57058;DHT22;55017;52.848;6.748;2023-11-21T10:14:10;8.90;99.90
57058;DHT22;55017;52.848;6.748;2023-11-21T10:16:38;8.80;99.90
57058;DHT22;55017;52.848;6.748;2023-11-21T10:19:05;8.90;99.90
57058;DHT22;55017;52.848;6.748;2023-11-21T10:21:35;9.00;99.90
57058;DHT22;55017;52.848;6.748;2023-11-21T10:24:00;8.90;99.90
57058;DHT22;55017;52.848;6.748;2023-11-21T10:26:27;8.80;99.90
57058;DHT22;55017;52.848;6.748;2023-11-21T10:29:00;8.90;99.90
57058;DHT22;55017;52.848;6.748;2023-11-21T10:31:29;8.90;99.90
57058;DHT22;55017;52.848;6.748;2023-11-21T10:34:18;8.90;99.90
57058;DHT22;55017;52.848;6.748;2023-11-21T10:36:44;8.90;99.90
57058;DHT22;55017;52.848;6.748;2023-11-21T10:39:16;8.90;99.90
57058;DHT22;55017;52.848;6.748;2023-11-21T10:41:44;8.90;99.90
57058;DHT22;55017;52.848;6.748;2023-11-21T10:44:11;8.90;99.90
57058;DHT22;55017;52.848;6.748;2023-11-21T10:46:40;9.00;99.90
57058;DHT22;55017;52.848;6.748;2023-11-21T10:49:06;9.00;99.90
57058;DHT22;55017;52.848;6.748;2023-11-21T10:51:32;8.90;99.90
57058;DHT22;55017;52.848;6.748;2023-11-21T10:53:57;8.90;99.90
57058;DHT22;55017;52.848;6.748;2023-11-21T10:56:25;8.80;99.90
57058;DHT22;55017;52.848;6.748;2023-11-21T10:58:51;8.90;99.90
57058;DHT22;55017;52.848;6.748;2023-11-21T11:01:18;8.80;99.90
57058;DHT22;55017;52.848;6.748;2023-11-21T11:03:46;9.00;99.90
57058;DHT22;55017;52.848;6.748;2023-11-21T11:06:12;9.00;99.90
57058;DHT22;55017;52.848;6.748;2023-11-21T11:08:39;8.90;99.90
57058;DHT22;55017;52.848;6.748;2023-11-21T11:11:05;9.00;99.90
57058;DHT22;55017;52.848;6.748;2023-11-21T11:13:31;9.00;99.90
57058;DHT22;55017;52.848;6.748;2023-11-21T11:15:59;9.00;99.90
57058;DHT22;55017;52.848;6.748;2023-11-21T11:18:27;9.00;99.90
57058;DHT22;55017;52.848;6.748;2023-11-21T11:20:54;8.90;99.90
57058;DHT22;55017;52.848;6.748;2023-11-21T11:23:32;9.10;99.90
57058;DHT22;55017;52.848;6.748;2023-11-21T11:34:26;9.00;99.90
57058;DHT22;55017;52.848;6.748;2023-11-21T11:41:56;9.20;99.90
57058;DHT22;55017;52.848;6.748;2023-11-21T11:47:31;9.40;99.90
57058;DHT22;55017;52.848;6.748;2023-11-21T11:50:09;9.60;99.90
57058;DHT22;55017;52.848;6.748;2023-11-21T11:52:47;9.70;99.90
57058;DHT22;55017;52.848;6.748;2023-11-21T11:55:15;9.60;99.90
57058;DHT22;55017;52.848;6.748;2023-11-21T11:57:45;10.00;99.90
57058;DHT22;55017;52.848;6.748;2023-11-21T12:00:41;10.30;99.90
57058;DHT22;55017;52.848;6.748;2023-11-21T12:03:08;10.50;99.90
57058;DHT22;55017;52.848;6.748;2023-11-21T12:05:35;10.50;99.90
57058;DHT22;55017;52.848;6.748;2023-11-21T12:08:05;10.70;99.90
57058;DHT22;55017;52.848;6.748;2023-11-21T12:10:35;10.50;99.90
57058;DHT22;55017;52.848;6.748;2023-11-21T12:13:09;10.40;99.90
57058;DHT22;55017;52.848;6.748;2023-11-21T12:15:36;10.30;99.90
57058;DHT22;55017;52.848;6.748;2023-11-21T12:18:02;10.20;99.90
57058;DHT22;55017;52.848;6.748;2023-11-21T12:20:29;10.10;99.90
57058;DHT22;55017;52.848;6.748;2023-11-21T12:22:58;10.00;99.90
57058;DHT22;55017;52.848;6.748;2023-11-21T12:25:29;10.00;99.90
57058;DHT22;55017;52.848;6.748;2023-11-21T12:27:56;9.90;99.90
57058;DHT22;55017;52.848;6.748;2023-11-21T12:30:27;9.70;99.90
57058;DHT22;55017;52.848;6.748;2023-11-21T12:33:04;9.70;99.90
57058;DHT22;55017;52.848;6.748;2023-11-21T12:35:33;9.40;99.90
57058;DHT22;55017;52.848;6.748;2023-11-21T12:38:00;9.60;99.90
57058;DHT22;55017;52.848;6.748;2023-11-21T12:40:28;9.60;99.90
57058;DHT22;55017;52.848;6.748;2023-11-21T12:42:56;9.50;99.90
57058;DHT22;55017;52.848;6.748;2023-11-21T12:45:23;9.70;99.90
57058;DHT22;55017;52.848;6.748;2023-11-21T12:47:53;9.60;99.90
57058;DHT22;55017;52.848;6.748;2023-11-21T12:50:21;9.50;99.90
57058;DHT22;55017;52.848;6.748;2023-11-21T12:52:50;9.70;99.90
57058;DHT22;55017;52.848;6.748;2023-11-21T12:55:17;9.70;99.90
57058;DHT22;55017;52.848;6.748;2023-11-21T12:57:48;9.80;99.90
57058;DHT22;55017;52.848;6.748;2023-11-21T13:00:18;9.60;99.90
57058;DHT22;55017;52.848;6.748;2023-11-21T13:02:57;9.60;99.90
57058;DHT22;55017;52.848;6.748;2023-11-21T13:05:41;9.50;99.90
57058;DHT22;55017;52.848;6.748;2023-11-21T13:08:11;9.50;99.90
57058;DHT22;55017;52.848;6.748;2023-11-21T13:10:40;9.60;99.90
57058;DHT22;55017;52.848;6.748;2023-11-21T13:13:09;9.50;99.90
57058;DHT22;55017;52.848;6.748;2023-11-21T13:15:39;9.70;99.90
57058;DHT22;55017;52.848;6.748;2023-11-21T13:18:06;9.80;99.90
57058;DHT22;55017;52.848;6.748;2023-11-21T13:20:32;9.90;99.90
57058;DHT22;55017;52.848;6.748;2023-11-21T13:22:58;10.10;99.90
57058;DHT22;55017;52.848;6.748;2023-11-21T13:25:25;9.90;99.90
57058;DHT22;55017;52.848;6.748;2023-11-21T13:28:00;10.10;99.90
57058;DHT22;55017;52.848;6.748;2023-11-21T13:30:26;10.00;99.90
57058;DHT22;55017;52.848;6.748;2023-11-21T13:32:55;9.80;99.90
57058;DHT22;55017;52.848;6.748;2023-11-21T13:35:27;10.00;99.90
57058;DHT22;55017;52.848;6.748;2023-11-21T13:38:13;9.80;99.90
57058;DHT22;55017;52.848;6.748;2023-11-21T13:40:40;9.70;99.90
57058;DHT22;55017;52.848;6.748;2023-11-21T13:43:10;9.40;99.90
57058;DHT22;55017;52.848;6.748;2023-11-21T13:45:37;9.60;99.90
57058;DHT22;55017;52.848;6.748;2023-11-21T13:48:04;9.50;99.90
57058;DHT22;55017;52.848;6.748;2023-11-21T13:50:32;9.60;99.90
57058;DHT22;55017;52.848;6.748;2023-11-21T13:53:03;9.40;99.90
57058;DHT22;55017;52.848;6.748;2023-11-21T13:55:48;9.50;99.90
57058;DHT22;55017;52.848;6.748;2023-11-21T13:58:15;9.50;99.90
57058;DHT22;55017;52.848;6.748;2023-11-21T14:00:48;9.50;99.90
57058;DHT22;55017;52.848;6.748;2023-11-21T14:03:24;9.40;99.90
57058;DHT22;55017;52.848;6.748;2023-11-21T14:06:03;9.50;99.90
57058;DHT22;55017;52.848;6.748;2023-11-21T14:08:34;9.40;99.90
57058;DHT22;55017;52.848;6.748;2023-11-21T14:10:59;9.50;99.90
57058;DHT22;55017;52.848;6.748;2023-11-21T14:13:26;9.50;99.90
57058;DHT22;55017;52.848;6.748;2023-11-21T14:15:52;9.40;99.90
57058;DHT22;55017;52.848;6.748;2023-11-21T14:18:24;9.50;99.90
57058;DHT22;55017;52.848;6.748;2023-11-21T14:21:06;9.30;99.90
57058;DHT22;55017;52.848;6.748;2023-11-21T14:23:33;9.20;99.90
57058;DHT22;55017;52.848;6.748;2023-11-21T14:26:01;9.20;99.90
57058;DHT22;55017;52.848;6.748;2023-11-21T14:28:27;9.00;99.90
57058;DHT22;55017;52.848;6.748;2023-11-21T14:30:52;9.00;99.90
57058;DHT22;55017;52.848;6.748;2023-11-21T14:33:18;9.00;99.90
57058;DHT22;55017;52.848;6.748;2023-11-21T14:35:44;9.00;99.90
57058;DHT22;55017;52.848;6.748;2023-11-21T14:38:10;8.90;99.90
57058;DHT22;55017;52.848;6.748;2023-11-21T14:40:36;8.80;99.90
57058;DHT22;55017;52.848;6.748;2023-11-21T14:43:04;8.90;99.90
57058;DHT22;55017;52.848;6.748;2023-11-21T14:45:33;8.90;99.90
57058;DHT22;55017;52.848;6.748;2023-11-21T14:48:00;8.80;99.90
57058;DHT22;55017;52.848;6.748;2023-11-21T14:50:35;8.80;99.90
57058;DHT22;55017;52.848;6.748;2023-11-21T14:53:21;8.70;99.90
57058;DHT22;55017;52.848;6.748;2023-11-21T14:56:07;8.60;99.90
57058;DHT22;55017;52.848;6.748;2023-11-21T14:58:33;8.60;99.90
57058;DHT22;55017;52.848;6.748;2023-11-21T15:00:59;8.60;99.90
57058;DHT22;55017;52.848;6.748;2023-11-21T15:03:27;8.60;99.90
57058;DHT22;55017;52.848;6.748;2023-11-21T15:06:00;8.70;99.90
57058;DHT22;55017;52.848;6.748;2023-11-21T15:08:44;8.60;99.90
57058;DHT22;55017;52.848;6.748;2023-11-21T15:11:11;8.40;99.90
57058;DHT22;55017;52.848;6.748;2023-11-21T15:13:40;8.40;99.90
57058;DHT22;55017;52.848;6.748;2023-11-21T15:16:07;8.50;99.90
57058;DHT22;55017;52.848;6.748;2023-11-21T15:18:34;8.50;99.90
57058;DHT22;55017;52.848;6.748;2023-11-21T15:21:01;8.40;99.90
57058;DHT22;55017;52.848;6.748;2023-11-21T15:23:29;8.40;99.90
57058;DHT22;55017;52.848;6.748;2023-11-21T15:25:56;8.50;99.90
57058;DHT22;55017;52.848;6.748;2023-11-21T15:28:23;8.30;99.90
57058;DHT22;55017;52.848;6.748;2023-11-21T15:30:50;8.30;99.90
57058;DHT22;55017;52.848;6.748;2023-11-21T15:33:17;8.30;99.90
57058;DHT22;55017;52.848;6.748;2023-11-21T15:35:43;8.10;99.90
57058;DHT22;55017;52.848;6.748;2023-11-21T15:38:08;8.20;99.90
57058;DHT22;55017;52.848;6.748;2023-11-21T15:40:34;8.20;99.90
57058;DHT22;55017;52.848;6.748;2023-11-21T15:43:00;8.20;99.90
57058;DHT22;55017;52.848;6.748;2023-11-21T15:45:28;8.20;99.90
57058;DHT22;55017;52.848;6.748;2023-11-21T15:47:54;8.10;99.90
57058;DHT22;55017;52.848;6.748;2023-11-21T15:50:20;8.10;99.90
57058;DHT22;55017;52.848;6.748;2023-11-21T15:52:46;8.10;99.90
57058;DHT22;55017;52.848;6.748;2023-11-21T15:55:12;7.90;99.90
57058;DHT22;55017;52.848;6.748;2023-11-21T15:57:38;7.90;99.90
57058;DHT22;55017;52.848;6.748;2023-11-21T16:00:05;7.70;99.90
57058;DHT22;55017;52.848;6.748;2023-11-21T16:02:36;7.60;99.90